Time;durP1;ratioP1;P1;durP2;ratioP2;P2;SDS_P1;SDS_P2;PMS_P1;PMS_P2;Temp;Humidity;BMP_temperature;BMP_pressure;BME280_temperature;BME280_humidity;BME280_pressure;Samples;Min_cycle;Max_cycle;Signal;HPM_P1;HPM_P2
2022/12/20 00:00:57;;;;;;;54.40;21.60;;;;;;;3.75;55.29;100386.22;4335416;33;20076;-84
2022/12/20 00:03:23;;;;;;;48.53;20.08;;;;;;;3.77;55.30;100394.00;4335508;33;20131;-84
2022/12/20 00:05:48;;;;;;;47.38;20.85;;;;;;;3.80;55.30;100399.22;4335391;33;20169;-84
2022/12/20 00:08:14;;;;;;;50.95;20.88;;;;;;;3.83;55.20;100407.91;4334256;33;20124;-84
2022/12/20 00:10:42;;;;;;;50.67;20.35;;;;;;;3.84;55.20;100409.63;4334251;33;20088;-84
2022/12/20 00:13:08;;;;;;;44.53;19.58;;;;;;;3.83;55.14;100428.78;4335244;33;20100;-84
2022/12/20 00:15:33;;;;;;;51.10;19.73;;;;;;;3.86;55.09;100418.34;4322043;33;20150;-83
2022/12/20 00:17:59;;;;;;;49.78;20.92;;;;;;;3.78;55.13;100414.00;4334255;33;20384;-84
2022/12/20 00:20:26;;;;;;;47.05;19.45;;;;;;;3.86;55.08;100410.53;4335297;33;20080;-83
2022/12/20 00:22:51;;;;;;;49.15;19.83;;;;;;;3.84;54.99;100414.84;4334230;33;20150;-83
2022/12/20 00:25:19;;;;;;;50.65;20.60;;;;;;;3.89;54.89;100415.72;4335281;33;20095;-83
2022/12/20 00:27:44;;;;;;;49.38;21.37;;;;;;;3.89;54.94;100428.75;4322472;33;20083;-83
2022/12/20 00:30:10;;;;;;;47.15;19.70;;;;;;;3.89;54.96;100404.44;4335525;33;20136;-84
2022/12/20 00:32:35;;;;;;;48.28;20.70;;;;;;;3.91;54.99;100395.72;4321928;33;20096;-84
2022/12/20 00:35:01;;;;;;;43.97;19.02;;;;;;;3.94;55.02;100394.88;4335389;33;20138;-83
2022/12/20 00:37:26;;;;;;;47.60;19.95;;;;;;;3.97;54.92;100394.84;4335551;33;20117;-84
2022/12/20 00:39:52;;;;;;;47.20;18.75;;;;;;;4.02;54.62;100394.84;4335422;33;20109;-84
2022/12/20 00:42:17;;;;;;;43.50;18.87;;;;;;;4.03;54.57;100392.22;4335456;33;20429;-84
2022/12/20 00:44:42;;;;;;;46.05;17.58;;;;;;;3.99;54.69;100397.47;4335416;33;20474;-84
2022/12/20 00:47:08;;;;;;;46.10;19.40;;;;;;;3.96;54.70;100381.81;4322052;33;20138;-85
2022/12/20 00:49:33;;;;;;;51.92;19.87;;;;;;;3.99;54.56;100387.03;4335208;33;20076;-88
2022/12/20 00:51:58;;;;;;;44.95;18.70;;;;;;;3.99;54.49;100376.59;4321831;33;20188;-87
2022/12/20 00:54:24;;;;;;;48.22;19.73;;;;;;;4.04;54.45;100372.25;4335251;33;20338;-88
2022/12/20 00:56:49;;;;;;;46.58;19.75;;;;;;;4.03;54.47;100362.69;4335022;33;20083;-87
2022/12/20 00:59:15;;;;;;;47.67;19.52;;;;;;;3.99;54.47;100364.44;4335263;33;20425;-87
2022/12/20 01:01:40;;;;;;;47.90;18.70;;;;;;;3.98;54.56;100367.94;4335445;33;20108;-87
2022/12/20 01:04:06;;;;;;;47.10;19.48;;;;;;;3.96;54.60;100366.16;4335151;33;20115;-87
2022/12/20 01:06:31;;;;;;;45.17;18.67;;;;;;;3.95;54.64;100362.72;4335412;33;20117;-89
2022/12/20 01:08:57;;;;;;;50.30;20.52;;;;;;;3.91;54.65;100355.75;4335414;33;20126;-88
2022/12/20 01:11:30;;;;;;;42.65;18.08;;;;;;;3.92;54.63;100357.47;4335273;33;20092;-88
2022/12/20 01:13:58;;;;;;;48.03;19.40;;;;;;;3.89;54.58;100353.16;4321988;33;20104;-87
2022/12/20 01:16:34;;;;;;;;;;;;;;;3.92;54.54;100355.78;4335582;33;20087;-87
2022/12/20 01:19:00;;;;;;;44.50;17.50;;;;;;;3.89;54.41;100355.75;4335309;33;20037;-83
2022/12/20 01:21:26;;;;;;;41.67;17.60;;;;;;;3.80;54.67;100358.38;4321816;33;20099;-83
2022/12/20 01:23:52;;;;;;;47.28;18.83;;;;;;;3.66;54.94;100357.53;4335360;33;20173;-82
2022/12/20 01:26:21;;;;;;;46.00;18.75;;;;;;;3.73;54.83;100349.72;4321906;33;20135;-83
2022/12/20 01:28:47;;;;;;;43.85;17.33;;;;;;;3.74;54.91;100350.56;4334957;33;20121;-83
2022/12/20 01:31:16;;;;;;;49.25;18.73;;;;;;;3.71;54.83;100346.25;4321614;33;20116;-83
2022/12/20 01:33:41;;;;;;;45.75;19.37;;;;;;;3.70;54.90;100334.06;4334935;33;20177;-83
2022/12/20 01:36:10;;;;;;;44.33;17.80;;;;;;;3.66;55.03;100328.87;4321020;33;20445;-84
2022/12/20 01:38:36;;;;;;;44.92;17.85;;;;;;;3.63;55.23;100328.87;4334788;33;20158;-85
2022/12/20 01:41:02;;;;;;;47.50;18.95;;;;;;;3.61;55.32;100326.28;4334899;33;20467;-85
2022/12/20 01:43:46;;;;;;;47.33;19.33;;;;;;;3.62;55.41;100317.59;4321655;33;20120;-84
2022/12/20 01:46:12;;;;;;;50.83;19.27;;;;;;;3.62;55.41;100314.97;4334874;33;20118;-84
2022/12/20 01:48:38;;;;;;;47.35;16.95;;;;;;;3.64;55.50;100313.25;4334789;33;20096;-84
2022/12/20 01:51:03;;;;;;;43.22;17.75;;;;;;;3.61;55.63;100310.66;4321522;33;20175;-84
2022/12/20 01:53:29;;;;;;;42.95;18.02;;;;;;;3.61;55.53;100305.44;4335025;33;20119;-84
2022/12/20 01:55:55;;;;;;;41.83;16.90;;;;;;;3.66;55.16;100295.84;4321577;33;20429;-84
2022/12/20 01:58:20;;;;;;;44.65;17.65;;;;;;;3.64;55.09;100283.72;4308990;33;20103;-84
2022/12/20 02:00:46;;;;;;;44.63;18.10;;;;;;;3.67;55.01;100268.06;4333723;33;20104;-84
2022/12/20 02:03:13;;;;;;;44.20;17.37;;;;;;;3.66;54.91;100264.59;4334877;33;20135;-84
2022/12/20 02:05:44;;;;;;;44.15;18.85;;;;;;;3.60;55.02;100268.97;4334773;33;20154;-84
2022/12/20 02:08:12;;;;;;;43.42;18.25;;;;;;;3.52;55.14;100264.63;4334225;33;20080;-84
2022/12/20 02:11:05;;;;;;;44.53;17.80;;;;;;;3.45;55.21;100275.91;4333693;33;20476;-84
2022/12/20 02:13:39;;;;;;;47.05;19.12;;;;;;;3.43;55.42;100276.81;4321096;33;20111;-84
2022/12/20 02:16:05;;;;;;;41.08;18.02;;;;;;;3.39;55.46;100267.25;4334535;33;20091;-84
2022/12/20 02:19:10;;;;;;;46.25;19.08;;;;;;;3.34;55.42;100265.53;4334341;33;20083;-84
2022/12/20 02:21:41;;;;;;;44.38;18.05;;;;;;;3.30;55.62;100258.59;4288662;33;20496;-84
2022/12/20 02:24:58;;;;;;;49.78;18.35;;;;;;;3.29;55.64;100267.25;4276725;33;20116;-84
2022/12/20 02:27:44;;;;;;;46.47;18.73;;;;;;;3.25;55.82;100269.88;4260098;33;20262;-84
2022/12/20 02:30:13;;;;;;;43.22;18.73;;;;;;;3.24;55.94;100276.81;4259931;33;20094;-84
2022/12/20 02:32:44;;;;;;;43.35;18.02;;;;;;;3.29;55.81;100275.09;4259817;33;20215;-85
2022/12/20 02:35:13;;;;;;;43.80;17.85;;;;;;;3.22;56.01;100277.69;4259998;33;20148;-85
2022/12/20 02:38:03;;;;;;;44.55;18.20;;;;;;;3.29;55.95;100272.47;4259839;33;20161;-85
2022/12/20 02:40:38;;;;;;;47.88;19.27;;;;;;;3.34;56.01;100272.47;4259935;33;20435;-85
2022/12/20 02:45:14;;;;;;;43.83;18.15;;;;;;;3.39;55.84;100268.13;4259725;33;20222;-85
2022/12/20 02:45:52;;;;;;;46.40;18.80;;;;;;;3.35;55.89;100269.84;4259968;33;20117;-85
2022/12/20 02:48:18;;;;;;;46.15;18.65;;;;;;;3.45;55.89;100265.50;4260066;33;20478;-85
2022/12/20 02:50:46;;;;;;;42.78;18.02;;;;;;;3.46;55.82;100259.44;4259927;33;20155;-85
2022/12/20 02:53:12;;;;;;;53.58;20.45;;;;;;;3.50;55.63;100253.34;4247909;33;20185;-85
2022/12/20 02:55:50;;;;;;;43.13;17.90;;;;;;;3.51;55.44;100247.25;4248182;33;20443;-85
2022/12/20 02:58:22;;;;;;;45.42;18.73;;;;;;;3.52;55.34;100237.72;4263830;33;20093;-84
2022/12/20 03:00:48;;;;;;;44.38;17.12;;;;;;;3.57;55.15;100230.72;4273843;33;20089;-84
2022/12/20 03:03:23;;;;;;;45.45;19.83;;;;;;;3.56;55.14;100234.22;4296981;33;20112;-84
2022/12/20 03:05:54;;;;;;;44.10;18.48;;;;;;;3.63;54.90;100233.34;4321657;33;20637;-85
2022/12/20 03:08:20;;;;;;;44.30;17.67;;;;;;;2.95;55.96;100241.28;4320573;33;20096;-85
2022/12/20 03:10:46;;;;;;;41.47;18.25;;;;;;;3.38;55.45;100236.84;4320413;33;20122;-85
2022/12/20 03:13:12;;;;;;;40.72;19.60;;;;;;;3.48;55.28;100230.78;4333700;33;20475;-85
2022/12/20 03:15:40;;;;;;;41.10;17.48;;;;;;;3.56;55.03;100226.41;4320178;33;20131;-84
2022/12/20 03:18:06;;;;;;;44.15;18.60;;;;;;;3.56;54.96;100225.53;4320097;33;20118;-84
2022/12/20 03:20:31;;;;;;;47.20;18.02;;;;;;;3.54;54.95;100223.81;4334188;33;20110;-84
2022/12/20 03:22:57;;;;;;;43.35;17.60;;;;;;;3.51;54.96;100218.59;4322401;33;20148;-84
2022/12/20 03:25:22;;;;;;;44.58;18.25;;;;;;;3.56;54.80;100215.97;4335744;33;20096;-84
2022/12/20 03:27:47;;;;;;;47.80;17.45;;;;;;;3.54;54.74;100202.94;4335487;33;20150;-85
2022/12/20 03:30:13;;;;;;;43.53;16.77;;;;;;;3.56;54.75;100212.53;4322300;33;20092;-84
2022/12/20 03:32:39;;;;;;;39.78;17.33;;;;;;;3.53;54.87;100226.41;4335610;33;20163;-85
2022/12/20 03:35:05;;;;;;;45.83;18.35;;;;;;;3.47;54.99;100214.25;4322395;33;20088;-85
2022/12/20 03:37:30;;;;;;;44.35;17.33;;;;;;;3.39;55.30;100222.97;4335698;33;20237;-84
2022/12/20 03:39:55;;;;;;;46.53;18.20;;;;;;;3.30;55.47;100226.44;4335609;33;20136;-84
2022/12/20 03:42:21;;;;;;;44.42;16.95;;;;;;;3.48;55.28;100230.78;4335458;33;20119;-84
2022/12/20 03:44:46;;;;;;;44.92;17.70;;;;;;;3.53;55.23;100223.78;4335634;33;20096;-85
2022/12/20 03:47:12;;;;;;;42.55;16.45;;;;;;;3.58;55.36;100221.19;4335552;33;20171;-86
2022/12/20 03:49:37;;;;;;;44.90;16.85;;;;;;;3.60;55.16;100220.31;4335461;33;20091;-86
2022/12/20 03:52:03;;;;;;;41.67;17.40;;;;;;;3.60;55.07;100219.44;4335460;33;20111;-85
2022/12/20 03:54:28;;;;;;;40.78;15.80;;;;;;;3.59;54.76;100230.72;4322164;33;20121;-85
2022/12/20 03:56:53;;;;;;;47.80;16.62;;;;;;;3.61;54.70;100235.09;4335201;33;20138;-86
2022/12/20 03:59:19;;;;;;;39.53;17.02;;;;;;;3.65;54.60;100215.97;4321992;33;20115;-85
2022/12/20 04:01:45;;;;;;;39.15;16.90;;;;;;;3.68;54.59;100213.31;4322189;33;20450;-86
2022/12/20 04:04:12;;;;;;;40.63;16.55;;;;;;;3.69;54.43;100208.97;4335503;33;20463;-86
2022/12/20 04:06:37;;;;;;;42.55;16.50;;;;;;;3.72;54.29;100208.97;4335382;33;20153;-85
2022/12/20 04:09:03;;;;;;;43.67;18.27;;;;;;;3.73;54.13;100206.37;4322121;33;20374;-86
2022/12/20 04:11:28;;;;;;;37.20;15.98;;;;;;;3.69;54.25;100194.22;4335442;33;20154;-85
2022/12/20 04:13:54;;;;;;;39.58;16.25;;;;;;;3.69;54.32;100182.91;4335535;33;20096;-86
2022/12/20 04:16:24;;;;;;;39.20;16.42;;;;;;;3.65;54.39;100174.25;4335371;33;20110;-84
2022/12/20 04:18:50;;;;;;;41.42;16.52;;;;;;;3.66;54.39;100162.94;4335348;33;20099;-84
2022/12/20 04:21:21;;;;;;;41.28;16.90;;;;;;;3.65;54.37;100163.84;4321907;33;20342;-84
2022/12/20 04:23:46;;;;;;;42.47;16.80;;;;;;;3.63;54.41;100152.56;4335470;33;20654;-84
2022/12/20 04:26:12;;;;;;;35.97;16.92;;;;;;;3.59;54.32;100156.03;4321936;33;20142;-84
2022/12/20 04:28:37;;;;;;;38.60;15.52;;;;;;;3.63;54.62;100154.28;4335150;33;20087;-83
2022/12/20 04:31:03;;;;;;;37.15;15.05;;;;;;;3.49;54.81;100151.72;4321470;33;20150;-84
2022/12/20 04:33:28;;;;;;;37.05;15.07;;;;;;;3.48;54.90;100163.91;4335261;33;20083;-86
2022/12/20 04:35:54;;;;;;;38.88;16.70;;;;;;;3.46;54.83;100160.44;4335209;33;20147;-85
2022/12/20 04:38:21;;;;;;;39.63;15.60;;;;;;;3.52;54.80;100163.00;4335264;33;20429;-85
2022/12/20 04:40:50;;;;;;;40.40;16.00;;;;;;;3.37;55.23;100167.41;4335262;33;20119;-85
2022/12/20 04:43:16;;;;;;;38.92;15.73;;;;;;;3.48;54.89;100174.31;4335230;33;20126;-83
2022/12/20 04:45:43;;;;;;;36.60;16.05;;;;;;;3.51;54.66;100176.91;4335345;33;20087;-85
2022/12/20 04:48:08;;;;;;;44.08;16.17;;;;;;;3.51;54.75;100170.81;4335373;33;20079;-84
2022/12/20 04:50:34;;;;;;;36.28;15.02;;;;;;;3.54;54.75;100165.63;4335429;33;20138;-86
2022/12/20 04:55:43;;;;;;;40.40;15.82;;;;;;;3.53;54.77;100177.78;4335169;33;20483;-87
2022/12/20 04:58:09;;;;;;;37.13;15.52;;;;;;;3.56;54.72;100189.94;4335068;33;20151;-86
2022/12/20 05:00:34;;;;;;;38.47;16.02;;;;;;;3.61;54.65;100196.00;4335078;33;20147;-87
2022/12/20 05:02:59;;;;;;;37.65;15.18;;;;;;;3.65;54.72;100184.69;4334998;33;20110;-87
2022/12/20 05:05:25;;;;;;;39.08;16.23;;;;;;;3.66;54.96;100185.53;4334939;33;20397;-86
2022/12/20 05:07:51;;;;;;;43.50;16.50;;;;;;;3.66;54.90;100203.78;4321815;33;20079;-88
2022/12/20 05:10:17;;;;;;;37.70;15.38;;;;;;;3.66;54.87;100183.78;4321749;33;20096;-86
2022/12/20 05:12:42;;;;;;;38.30;14.90;;;;;;;3.70;54.53;100190.72;4334987;33;20139;-87
2022/12/20 05:15:08;;;;;;;33.42;14.30;;;;;;;3.56;54.90;100189.06;4335136;33;20135;-87
2022/12/20 05:17:34;;;;;;;38.70;13.88;;;;;;;3.65;54.49;100191.62;4335081;33;20110;-86
2022/12/20 05:19:59;;;;;;;37.03;15.35;;;;;;;3.66;54.46;100195.97;4321541;33;20150;-86
2022/12/20 05:27:54;;;;;;;35.38;13.95;;;;;;;3.65;54.46;100210.75;4334917;33;20544;-83
2022/12/20 05:30:19;;;;;;;40.50;15.32;;;;;;;3.69;54.46;100215.06;4334651;33;20092;-85
2022/12/20 05:32:44;;;;;;;39.08;16.15;;;;;;;3.77;54.31;100206.34;4334850;33;20100;-85
2022/12/20 05:35:10;;;;;;;36.30;14.15;;;;;;;3.76;54.26;100208.09;4334929;33;20147;-84
2022/12/20 05:37:36;;;;;;;36.78;14.65;;;;;;;3.78;54.28;100203.72;4334900;33;20083;-84
2022/12/20 05:40:03;;;;;;;39.97;15.63;;;;;;;3.79;54.19;100202.87;4334824;33;20108;-85
2022/12/20 05:42:28;;;;;;;39.27;15.33;;;;;;;3.84;54.09;100208.06;4334242;33;20096;-84
2022/12/20 05:44:54;;;;;;;36.03;15.43;;;;;;;3.82;54.12;100209.81;4334486;33;20488;-84
2022/12/20 05:47:19;;;;;;;31.55;14.10;;;;;;;3.81;54.05;100202.87;4334728;33;20083;-84
2022/12/20 05:49:45;;;;;;;40.75;15.68;;;;;;;3.72;54.05;100190.72;4334884;33;20095;-84
2022/12/20 05:52:10;;;;;;;36.78;14.90;;;;;;;3.79;54.00;100192.44;4334694;33;20179;-84
2022/12/20 05:54:35;;;;;;;36.25;14.27;;;;;;;3.79;54.19;100187.22;4334694;33;20095;-85
2022/12/20 05:57:01;;;;;;;37.97;15.15;;;;;;;3.80;54.09;100186.34;4334269;33;20172;-85
2022/12/20 05:59:26;;;;;;;37.83;15.32;;;;;;;3.81;54.05;100182.03;4334512;33;20139;-82
2022/12/20 06:01:51;;;;;;;35.10;15.25;;;;;;;3.83;54.13;100177.66;4334672;33;20107;-82
2022/12/20 06:04:17;;;;;;;37.70;14.90;;;;;;;3.79;54.28;100171.59;4334656;33;20080;-82
2022/12/20 06:06:42;;;;;;;36.53;15.63;;;;;;;3.74;54.35;100165.53;4334384;33;20072;-83
2022/12/20 06:09:08;;;;;;;36.03;15.30;;;;;;;3.79;54.43;100170.72;4321123;33;20139;-86
2022/12/20 06:11:33;;;;;;;33.85;14.85;;;;;;;3.78;54.25;100167.22;4334568;33;20147;-86
2022/12/20 06:13:59;;;;;;;38.13;15.50;;;;;;;3.74;54.35;100153.34;4334351;33;20107;-84
2022/12/20 06:16:24;;;;;;;36.30;15.57;;;;;;;3.70;54.19;100151.63;4334451;33;20087;-84
2022/12/20 06:18:49;;;;;;;36.10;14.23;;;;;;;3.71;54.19;100153.38;4334411;33;20425;-85
2022/12/20 06:21:15;;;;;;;35.25;14.48;;;;;;;3.61;54.29;100154.31;4334374;33;20110;-85
2022/12/20 06:23:41;;;;;;;36.67;14.65;;;;;;;3.62;54.31;100157.78;4334311;33;20096;-88
2022/12/20 06:26:08;;;;;;;38.65;15.05;;;;;;;3.61;54.44;100158.63;4321075;33;20098;-87
2022/12/20 06:28:34;;;;;;;35.30;14.38;;;;;;;3.65;54.33;100158.63;4320889;33;20130;-84
2022/12/20 06:30:59;;;;;;;35.40;14.43;;;;;;;3.65;54.43;100161.22;4334586;33;20100;-81
2022/12/20 06:33:25;;;;;;;38.55;14.32;;;;;;;3.67;54.34;100156.88;4334355;33;20428;-82
2022/12/20 06:35:50;;;;;;;38.42;14.65;;;;;;;3.67;54.20;100150.78;4321081;33;20092;-81
2022/12/20 06:38:16;;;;;;;36.00;15.25;;;;;;;3.62;54.30;100153.41;4321099;33;20100;-82
2022/12/20 06:40:41;;;;;;;35.97;15.65;;;;;;;3.59;54.32;100149.94;4334507;33;20376;-82
2022/12/20 06:43:07;;;;;;;34.15;14.10;;;;;;;3.62;54.34;100142.13;4334211;33;20421;-86
2022/12/20 06:45:32;;;;;;;36.13;14.90;;;;;;;3.62;54.40;100136.91;4334006;33;20084;-83
2022/12/20 06:47:58;;;;;;;35.05;14.43;;;;;;;3.60;54.34;100141.28;4334059;33;20092;-81
2022/12/20 06:50:23;;;;;;;35.85;14.87;;;;;;;3.56;54.51;100140.41;4334043;33;20088;-81
2022/12/20 06:52:49;;;;;;;33.47;14.25;;;;;;;3.57;54.84;100131.72;4333668;33;20267;-79
2022/12/20 06:55:14;;;;;;;34.20;14.32;;;;;;;3.60;54.79;100131.72;4335208;33;20100;-81
2022/12/20 06:57:39;;;;;;;35.63;14.68;;;;;;;3.62;54.54;100126.50;4337178;33;20132;-80
2022/12/20 07:00:07;;;;;;;33.15;14.23;;;;;;;3.59;54.50;100134.31;4333383;33;20114;-80
2022/12/20 07:02:32;;;;;;;37.55;13.40;;;;;;;3.21;55.60;100127.53;4334350;33;20158;-82
2022/12/20 07:04:58;;;;;;;39.85;13.73;;;;;;;3.33;55.21;100122.28;4335346;33;20083;-80
2022/12/20 07:07:23;;;;;;;34.47;13.45;;;;;;;3.46;54.91;100121.34;4335344;33;20503;-79
2022/12/20 07:09:49;;;;;;;39.90;14.50;;;;;;;3.44;54.86;100115.28;4322491;33;20576;-80
2022/12/20 07:12:14;;;;;;;32.85;13.93;;;;;;;3.50;54.71;100117.88;4335725;33;20110;-79
2022/12/20 07:14:40;;;;;;;38.33;13.93;;;;;;;3.53;54.71;100117.88;4335736;33;20091;-80
2022/12/20 07:17:06;;;;;;;37.80;14.50;;;;;;;3.53;54.61;100116.97;4335694;33;20092;-79
2022/12/20 07:19:32;;;;;;;34.10;14.77;;;;;;;3.49;54.61;100136.09;4322501;33;20103;-80
2022/12/20 07:21:57;;;;;;;35.25;13.65;;;;;;;3.58;54.58;100123.03;4319284;33;20630;-80
2022/12/20 07:24:23;;;;;;;34.83;14.05;;;;;;;3.60;54.57;100123.91;4320162;33;20084;-80
2022/12/20 07:26:48;;;;;;;32.05;12.85;;;;;;;3.55;54.59;100128.25;4320463;33;20475;-80
2022/12/20 07:29:14;;;;;;;33.17;14.63;;;;;;;3.58;54.47;100137.81;4319403;33;20096;-82
2022/12/20 07:31:39;;;;;;;32.33;13.38;;;;;;;3.58;54.41;100143.88;4320692;33;20531;-81
2022/12/20 07:34:04;;;;;;;33.42;13.68;;;;;;;3.72;54.26;100136.84;4307110;33;20131;-82
2022/12/20 07:36:30;;;;;;;33.75;13.43;;;;;;;3.74;54.16;100135.09;4319384;33;20156;-82
2022/12/20 07:38:56;;;;;;;36.45;14.25;;;;;;;3.79;54.15;100142.06;4321054;33;20140;-81
2022/12/20 07:41:23;;;;;;;32.13;13.07;;;;;;;3.77;54.04;100147.28;4320966;33;20114;-82
2022/12/20 07:43:49;;;;;;;35.17;13.23;;;;;;;3.77;53.79;100139.47;4320821;33;20139;-82
2022/12/20 07:46:15;;;;;;;34.67;13.82;;;;;;;3.81;53.58;100133.34;4319897;33;20111;-81
2022/12/20 07:48:41;;;;;;;34.53;13.60;;;;;;;3.53;53.97;100136.09;4319850;33;20124;-81
2022/12/20 07:51:11;;;;;;;33.30;13.25;;;;;;;3.66;53.88;100131.69;4319860;33;20124;-82
2022/12/20 07:53:40;;;;;;;30.02;13.07;;;;;;;3.77;53.54;100130.75;4319539;33;20092;-81
2022/12/20 07:56:07;;;;;;;32.10;13.73;;;;;;;3.80;53.56;100135.97;4320788;33;20100;-81
2022/12/20 07:58:34;;;;;;;33.17;13.85;;;;;;;3.80;53.42;100141.16;4319583;33;20175;-82
2022/12/20 08:01:00;;;;;;;33.95;14.00;;;;;;;3.66;53.83;100141.25;4319519;33;20460;-81
2022/12/20 08:03:32;;;;;;;32.97;13.65;;;;;;;3.78;53.57;100124.69;4320872;33;20441;-82
2022/12/20 08:06:02;;;;;;;32.63;13.13;;;;;;;3.82;53.40;100116.81;4319185;33;20147;-82
2022/12/20 08:08:28;;;;;;;33.17;12.93;;;;;;;3.83;53.12;100099.47;4319824;33;20407;-82
2022/12/20 08:10:54;;;;;;;34.10;13.62;;;;;;;3.88;52.85;100085.53;4319658;33;20088;-82
2022/12/20 08:13:19;;;;;;;35.90;13.68;;;;;;;3.94;52.80;100082.00;4320623;33;20120;-81
2022/12/20 08:15:44;;;;;;;32.30;12.80;;;;;;;3.68;53.27;100093.44;4319726;33;20132;-82
2022/12/20 08:18:10;;;;;;;32.53;13.00;;;;;;;3.90;53.24;100091.59;4319598;33;20107;-82
2022/12/20 08:20:35;;;;;;;33.60;13.40;;;;;;;3.89;53.20;100086.38;4320702;33;20072;-82
2022/12/20 08:23:04;;;;;;;30.40;12.30;;;;;;;3.95;52.99;100088.94;4320560;33;20148;-82
2022/12/20 08:25:29;;;;;;;34.80;13.95;;;;;;;4.03;52.96;100081.06;4319646;33;20179;-82
2022/12/20 08:27:55;;;;;;;33.33;13.57;;;;;;;4.15;52.93;100078.34;4320718;33;20152;-82
2022/12/20 08:30:20;;;;;;;34.08;13.60;;;;;;;4.19;52.81;100082.69;4319544;33;20462;-82
2022/12/20 08:32:46;;;;;;;33.63;12.98;;;;;;;4.12;52.46;100081.88;4320598;33;20419;-81
2022/12/20 08:35:11;;;;;;;39.20;14.27;;;;;;;4.18;52.06;100085.31;4319718;33;20112;-82
2022/12/20 08:37:37;;;;;;;32.17;13.20;;;;;;;4.27;51.95;100087.84;4320883;33;20152;-81
2022/12/20 08:40:03;;;;;;;31.40;12.20;;;;;;;4.33;51.92;100078.22;4307465;33;20378;-82
2022/12/20 08:42:28;;;;;;;31.33;12.52;;;;;;;4.35;51.73;100080.81;4320607;33;20084;-82
2022/12/20 08:44:54;;;;;;;30.27;12.50;;;;;;;4.38;51.61;100092.97;4319318;33;20108;-82
2022/12/20 08:47:19;;;;;;;30.95;12.82;;;;;;;4.46;51.41;100098.97;4320542;33;20139;-82
2022/12/20 08:49:45;;;;;;;30.15;13.25;;;;;;;4.46;51.25;100084.22;4320415;33;20104;-82
2022/12/20 08:52:10;;;;;;;33.25;12.32;;;;;;;4.46;51.26;100081.59;4320515;33;20106;-81
2022/12/20 08:54:35;;;;;;;31.60;11.85;;;;;;;4.36;51.39;100073.84;4320388;33;20088;-82
2022/12/20 08:57:01;;;;;;;31.85;12.45;;;;;;;4.40;51.26;100071.19;4320370;33;20131;-81
2022/12/20 08:59:26;;;;;;;30.75;12.90;;;;;;;4.24;51.70;100074.81;4320657;33;20420;-81
2022/12/20 09:01:53;;;;;;;30.25;12.45;;;;;;;4.17;51.93;100076.59;4320390;33;20092;-82
2022/12/20 09:04:19;;;;;;;31.87;12.27;;;;;;;4.20;51.89;100089.62;4320319;33;20163;-82
2022/12/20 09:06:45;;;;;;;30.98;12.32;;;;;;;4.30;51.57;100088.66;4320568;33;20104;-82
2022/12/20 09:09:11;;;;;;;30.98;12.30;;;;;;;4.33;51.52;100069.53;4320346;33;20084;-82
2022/12/20 09:11:36;;;;;;;31.25;12.30;;;;;;;4.37;51.34;100079.06;4319224;33;20088;-82
2022/12/20 09:14:01;;;;;;;29.52;11.50;;;;;;;4.03;52.04;100086.28;4320211;33;20143;-81
2022/12/20 09:16:29;;;;;;;31.35;12.82;;;;;;;4.40;51.64;100089.47;4320436;33;20118;-81
2022/12/20 09:18:56;;;;;;;30.05;11.95;;;;;;;4.43;51.33;100094.66;4318104;33;20092;-82
2022/12/20 09:21:22;;;;;;;29.25;13.43;;;;;;;4.52;51.21;100083.28;4319055;33;20080;-82
2022/12/20 09:23:51;;;;;;;30.67;12.25;;;;;;;4.46;51.18;100076.38;4320299;33;20115;-81
2022/12/20 09:26:17;;;;;;;31.05;12.75;;;;;;;4.58;51.00;100075.41;4319193;33;20180;-82
2022/12/20 09:28:44;;;;;;;34.60;12.88;;;;;;;4.73;50.54;100083.09;4319192;33;20088;-82
2022/12/20 09:31:12;;;;;;;30.12;12.75;;;;;;;4.83;50.18;100089.09;4320334;33;20126;-82
2022/12/20 09:33:37;;;;;;;;;;;;;;;4.92;49.98;100073.31;4307175;33;20167;-82
2022/12/20 09:36:03;;;;;;;33.42;13.40;;;;;;;5.05;49.53;100063.59;4319325;33;20329;-81
2022/12/20 09:38:30;;;;;;;30.88;12.23;;;;;;;5.06;49.38;100038.31;4320168;33;20092;-82
2022/12/20 09:41:03;;;;;;;29.08;12.07;;;;;;;5.01;49.33;100037.53;4320336;33;20142;-82
2022/12/20 09:43:29;;;;;;;32.45;12.55;;;;;;;5.04;49.45;100032.25;4319156;33;20131;-82
2022/12/20 09:45:57;;;;;;;32.47;14.00;;;;;;;4.95;49.52;100025.41;4320137;33;20100;-82
2022/12/20 09:48:28;;;;;;;31.42;12.48;;;;;;;4.96;49.58;100026.25;4319109;33;20097;-82
2022/12/20 09:51:08;;;;;;;29.48;11.60;;;;;;;5.02;49.42;100027.06;4318944;33;20107;-82
2022/12/20 09:53:40;;;;;;;31.08;12.00;;;;;;;4.96;49.65;100029.72;4320100;33;20167;-82
2022/12/20 09:56:14;;;;;;;33.40;12.50;;;;;;;4.87;49.72;100037.69;4320160;33;20162;-82
2022/12/20 09:58:59;;;;;;;31.40;12.95;;;;;;;4.60;50.36;100033.63;4306959;33;20420;-82
2022/12/20 10:01:27;;;;;;;30.95;12.37;;;;;;;4.84;50.22;100032.50;4318857;33;20159;-82
2022/12/20 10:03:54;;;;;;;31.35;13.57;;;;;;;4.91;50.25;100024.56;4318896;33;20139;-82
2022/12/20 10:06:42;;;;;;;30.52;13.27;;;;;;;4.94;50.19;100023.66;4318860;33;20115;-82
2022/12/20 10:09:42;;;;;;;30.33;12.70;;;;;;;4.86;50.47;100022.91;4319885;33;20174;-82
2022/12/20 10:12:07;;;;;;;35.40;13.52;;;;;;;5.09;50.31;100020.00;4318902;33;20080;-82
2022/12/20 10:14:47;;;;;;;33.67;12.52;;;;;;;5.18;49.72;100006.00;4319885;33;20130;-82
2022/12/20 10:17:29;;;;;;;27.00;11.70;;;;;;;5.30;49.30;100011.91;4319895;33;20104;-82
2022/12/20 10:20:10;;;;;;;30.95;12.57;;;;;;;5.28;49.33;100008.44;4318787;33;20151;-82
2022/12/20 10:22:44;;;;;;;32.50;12.80;;;;;;;5.47;48.86;99995.13;4318549;33;20111;-82
2022/12/20 10:25:29;;;;;;;29.70;12.13;;;;;;;5.59;48.52;100007.16;4318661;33;20139;-82
2022/12/20 10:27:55;;;;;;;30.30;12.85;;;;;;;5.67;48.41;99997.44;4319819;33;20520;-82
2022/12/20 10:30:23;;;;;;;31.27;13.02;;;;;;;5.78;48.13;99994.69;4319161;33;20084;-82
2022/12/20 10:32:52;;;;;;;31.85;12.95;;;;;;;5.89;47.75;99980.53;4318524;33;20096;-82
2022/12/20 10:35:36;;;;;;;31.05;12.60;;;;;;;6.02;47.51;99973.38;4318503;33;20128;-82
2022/12/20 10:38:05;;;;;;;31.95;12.25;;;;;;;6.22;47.25;99967.81;4318606;33;20130;-82
2022/12/20 10:40:31;;;;;;;31.20;12.40;;;;;;;6.29;46.79;99950.22;4319604;33;20453;-82
2022/12/20 10:42:56;;;;;;;32.55;12.93;;;;;;;6.45;46.43;99950.78;4319489;33;20088;-82
2022/12/20 10:45:22;;;;;;;30.50;12.63;;;;;;;6.48;46.27;99953.38;4319467;33;20381;-82
2022/12/20 10:47:49;;;;;;;26.80;11.68;;;;;;;6.52;46.19;99952.41;4318232;33;20118;-82
2022/12/20 10:50:20;;;;;;;29.90;12.90;;;;;;;6.44;46.35;99962.19;4306227;33;20158;-82
2022/12/20 10:53:06;;;;;;;29.65;12.90;;;;;;;6.56;46.11;99958.44;4318206;33;20088;-82
2022/12/20 10:55:36;;;;;;;28.58;12.07;;;;;;;6.41;46.15;99952.63;4319324;33;20104;-82
2022/12/20 10:58:14;;;;;;;30.15;12.10;;;;;;;6.38;46.31;99939.59;4319250;33;20107;-82
2022/12/20 11:00:39;;;;;;;29.50;12.35;;;;;;;6.36;46.62;99930.06;4318401;33;20132;-82
2022/12/20 11:03:17;;;;;;;30.62;13.13;;;;;;;6.29;46.58;99922.28;4318194;33;20084;-82
2022/12/20 11:06:02;;;;;;;31.75;13.10;;;;;;;6.25;46.79;99919.78;4318317;33;20175;-82
2022/12/20 11:08:29;;;;;;;30.62;12.55;;;;;;;6.30;46.96;99923.19;4318160;33;20104;-82
2022/12/20 11:11:11;;;;;;;29.20;12.20;;;;;;;6.29;46.79;99913.59;4318042;33;20092;-82
2022/12/20 11:13:37;;;;;;;27.83;11.70;;;;;;;6.30;46.51;99905.72;4317809;33;20113;-82
2022/12/20 11:16:02;;;;;;;26.73;11.93;;;;;;;6.16;46.54;99899.91;4306049;33;20370;-82
2022/12/20 11:18:49;;;;;;;32.30;12.43;;;;;;;6.18;46.65;99903.34;4318099;33;20163;-82
2022/12/20 11:21:29;;;;;;;27.77;11.77;;;;;;;6.23;46.69;99906.72;4318263;33;20162;-82
2022/12/20 11:24:01;;;;;;;30.27;12.65;;;;;;;6.31;46.57;99903.94;4319030;33;20106;-82
2022/12/20 11:26:26;;;;;;;32.22;13.27;;;;;;;6.33;46.61;99906.53;4319017;33;20104;-82
2022/12/20 11:29:14;;;;;;;28.45;12.02;;;;;;;6.39;46.20;99894.19;4318821;33;20092;-82
2022/12/20 11:31:51;;;;;;;27.00;11.05;;;;;;;6.34;46.15;99887.34;4318869;33;20605;-82